sensor_id;sensor_type;location;lat;lon;timestamp;P1;durP1;ratioP1;P2;durP2;ratioP2
6163;SDS011;3114;48.362;10.994;2022-11-15T00:01:23;8.25;;;3.90;;
6163;SDS011;3114;48.362;10.994;2022-11-15T00:03:50;4.63;;;3.53;;
6163;SDS011;3114;48.362;10.994;2022-11-15T00:06:19;7.32;;;4.47;;
6163;SDS011;3114;48.362;10.994;2022-11-15T00:08:46;4.88;;;3.70;;
6163;SDS011;3114;48.362;10.994;2022-11-15T00:11:15;6.88;;;3.90;;
6163;SDS011;3114;48.362;10.994;2022-11-15T00:13:41;5.00;;;3.30;;
6163;SDS011;3114;48.362;10.994;2022-11-15T00:16:08;4.45;;;3.47;;
6163;SDS011;3114;48.362;10.994;2022-11-15T00:18:37;4.50;;;3.53;;
6163;SDS011;3114;48.362;10.994;2022-11-15T00:21:04;6.03;;;3.95;;
6163;SDS011;3114;48.362;10.994;2022-11-15T00:23:34;6.10;;;3.67;;
6163;SDS011;3114;48.362;10.994;2022-11-15T00:26:01;5.13;;;3.70;;
6163;SDS011;3114;48.362;10.994;2022-11-15T00:28:28;4.32;;;3.47;;
6163;SDS011;3114;48.362;10.994;2022-11-15T00:30:59;7.03;;;3.95;;
6163;SDS011;3114;48.362;10.994;2022-11-15T00:33:27;5.03;;;3.85;;
6163;SDS011;3114;48.362;10.994;2022-11-15T00:35:58;6.13;;;3.80;;
6163;SDS011;3114;48.362;10.994;2022-11-15T00:38:30;7.53;;;3.85;;
6163;SDS011;3114;48.362;10.994;2022-11-15T00:41:00;11.43;;;5.35;;
6163;SDS011;3114;48.362;10.994;2022-11-15T00:43:28;6.85;;;3.95;;
6163;SDS011;3114;48.362;10.994;2022-11-15T00:45:55;6.20;;;3.75;;
6163;SDS011;3114;48.362;10.994;2022-11-15T00:48:22;5.65;;;3.47;;
6163;SDS011;3114;48.362;10.994;2022-11-15T00:50:55;4.97;;;3.53;;
6163;SDS011;3114;48.362;10.994;2022-11-15T00:53:22;5.97;;;3.97;;
6163;SDS011;3114;48.362;10.994;2022-11-15T00:55:49;8.98;;;4.15;;
6163;SDS011;3114;48.362;10.994;2022-11-15T00:58:18;4.75;;;3.42;;
6163;SDS011;3114;48.362;10.994;2022-11-15T01:00:45;5.72;;;3.65;;
6163;SDS011;3114;48.362;10.994;2022-11-15T01:03:12;8.95;;;3.50;;
6163;SDS011;3114;48.362;10.994;2022-11-15T01:05:40;5.18;;;4.18;;
6163;SDS011;3114;48.362;10.994;2022-11-15T01:08:10;5.95;;;3.90;;
6163;SDS011;3114;48.362;10.994;2022-11-15T01:10:38;3.88;;;3.40;;
6163;SDS011;3114;48.362;10.994;2022-11-15T01:13:06;6.88;;;3.72;;
6163;SDS011;3114;48.362;10.994;2022-11-15T01:15:34;5.20;;;3.67;;
6163;SDS011;3114;48.362;10.994;2022-11-15T01:18:05;4.63;;;3.80;;
6163;SDS011;3114;48.362;10.994;2022-11-15T01:20:31;4.50;;;3.63;;
6163;SDS011;3114;48.362;10.994;2022-11-15T01:22:58;4.93;;;3.55;;
6163;SDS011;3114;48.362;10.994;2022-11-15T01:25:25;4.65;;;3.70;;
6163;SDS011;3114;48.362;10.994;2022-11-15T01:27:52;5.22;;;3.50;;
6163;SDS011;3114;48.362;10.994;2022-11-15T01:30:19;4.95;;;3.47;;
6163;SDS011;3114;48.362;10.994;2022-11-15T01:32:47;5.15;;;4.10;;
6163;SDS011;3114;48.362;10.994;2022-11-15T01:35:14;5.18;;;3.30;;
6163;SDS011;3114;48.362;10.994;2022-11-15T01:37:41;5.32;;;3.35;;
6163;SDS011;3114;48.362;10.994;2022-11-15T01:40:08;4.68;;;3.20;;
6163;SDS011;3114;48.362;10.994;2022-11-15T01:42:36;4.38;;;3.33;;
6163;SDS011;3114;48.362;10.994;2022-11-15T01:45:05;5.22;;;3.30;;
6163;SDS011;3114;48.362;10.994;2022-11-15T01:47:33;5.03;;;3.50;;
6163;SDS011;3114;48.362;10.994;2022-11-15T01:50:05;4.22;;;3.05;;
6163;SDS011;3114;48.362;10.994;2022-11-15T01:52:38;4.85;;;3.22;;
6163;SDS011;3114;48.362;10.994;2022-11-15T01:55:07;3.85;;;3.10;;
6163;SDS011;3114;48.362;10.994;2022-11-15T01:57:37;5.05;;;3.50;;
6163;SDS011;3114;48.362;10.994;2022-11-15T02:00:06;3.40;;;3.10;;
6163;SDS011;3114;48.362;10.994;2022-11-15T02:02:34;6.75;;;3.35;;
6163;SDS011;3114;48.362;10.994;2022-11-15T02:05:04;3.70;;;3.30;;
6163;SDS011;3114;48.362;10.994;2022-11-15T02:07:36;4.38;;;3.47;;
6163;SDS011;3114;48.362;10.994;2022-11-15T02:10:06;4.65;;;3.15;;
6163;SDS011;3114;48.362;10.994;2022-11-15T02:12:35;4.35;;;3.22;;
6163;SDS011;3114;48.362;10.994;2022-11-15T02:15:04;4.60;;;3.03;;
6163;SDS011;3114;48.362;10.994;2022-11-15T02:17:38;4.25;;;3.10;;
6163;SDS011;3114;48.362;10.994;2022-11-15T02:20:32;3.38;;;3.08;;
6163;SDS011;3114;48.362;10.994;2022-11-15T02:23:31;4.00;;;3.17;;
6163;SDS011;3114;48.362;10.994;2022-11-15T02:29:29;7.20;;;3.35;;
6163;SDS011;3114;48.362;10.994;2022-11-15T02:32:11;5.43;;;3.15;;
6163;SDS011;3114;48.362;10.994;2022-11-15T02:34:46;5.65;;;3.58;;
6163;SDS011;3114;48.362;10.994;2022-11-15T02:37:21;4.68;;;3.05;;
6163;SDS011;3114;48.362;10.994;2022-11-15T02:39:57;5.28;;;3.65;;
6163;SDS011;3114;48.362;10.994;2022-11-15T02:42:30;8.00;;;3.78;;
6163;SDS011;3114;48.362;10.994;2022-11-15T02:45:17;4.65;;;3.53;;
6163;SDS011;3114;48.362;10.994;2022-11-15T02:47:51;4.90;;;3.60;;
6163;SDS011;3114;48.362;10.994;2022-11-15T02:50:21;4.55;;;3.35;;
6163;SDS011;3114;48.362;10.994;2022-11-15T02:52:51;4.15;;;3.30;;
6163;SDS011;3114;48.362;10.994;2022-11-15T02:55:26;5.80;;;3.63;;
6163;SDS011;3114;48.362;10.994;2022-11-15T02:57:57;4.22;;;3.20;;
6163;SDS011;3114;48.362;10.994;2022-11-15T03:00:38;4.13;;;3.30;;
6163;SDS011;3114;48.362;10.994;2022-11-15T03:03:18;4.90;;;3.45;;
6163;SDS011;3114;48.362;10.994;2022-11-15T03:05:59;5.45;;;3.50;;
6163;SDS011;3114;48.362;10.994;2022-11-15T03:08:37;5.95;;;3.70;;
6163;SDS011;3114;48.362;10.994;2022-11-15T03:11:12;5.00;;;3.28;;
6163;SDS011;3114;48.362;10.994;2022-11-15T03:13:43;4.80;;;4.05;;
6163;SDS011;3114;48.362;10.994;2022-11-15T03:16:19;5.18;;;3.75;;
6163;SDS011;3114;48.362;10.994;2022-11-15T03:18:53;8.57;;;3.85;;
6163;SDS011;3114;48.362;10.994;2022-11-15T03:21:23;4.50;;;3.50;;
6163;SDS011;3114;48.362;10.994;2022-11-15T03:23:54;4.53;;;3.13;;
6163;SDS011;3114;48.362;10.994;2022-11-15T03:26:24;3.55;;;3.03;;
6163;SDS011;3114;48.362;10.994;2022-11-15T03:28:52;3.50;;;3.08;;
6163;SDS011;3114;48.362;10.994;2022-11-15T03:31:22;3.47;;;2.97;;
6163;SDS011;3114;48.362;10.994;2022-11-15T03:34:14;3.37;;;3.00;;
6163;SDS011;3114;48.362;10.994;2022-11-15T03:36:46;4.75;;;3.00;;
6163;SDS011;3114;48.362;10.994;2022-11-15T03:39:14;5.20;;;3.13;;
6163;SDS011;3114;48.362;10.994;2022-11-15T03:41:42;3.20;;;2.73;;
6163;SDS011;3114;48.362;10.994;2022-11-15T03:44:15;3.13;;;2.83;;
6163;SDS011;3114;48.362;10.994;2022-11-15T03:46:47;3.63;;;2.70;;
6163;SDS011;3114;48.362;10.994;2022-11-15T03:52:01;4.95;;;3.28;;
6163;SDS011;3114;48.362;10.994;2022-11-15T03:54:29;3.55;;;3.08;;
6163;SDS011;3114;48.362;10.994;2022-11-15T03:56:56;3.38;;;2.80;;
6163;SDS011;3114;48.362;10.994;2022-11-15T03:59:23;4.20;;;3.10;;
6163;SDS011;3114;48.362;10.994;2022-11-15T04:01:50;4.28;;;3.13;;
6163;SDS011;3114;48.362;10.994;2022-11-15T04:04:17;5.97;;;3.28;;
6163;SDS011;3114;48.362;10.994;2022-11-15T04:06:45;4.93;;;3.20;;
6163;SDS011;3114;48.362;10.994;2022-11-15T04:09:12;5.13;;;3.15;;
6163;SDS011;3114;48.362;10.994;2022-11-15T04:11:39;6.40;;;3.65;;
6163;SDS011;3114;48.362;10.994;2022-11-15T04:14:06;5.43;;;3.55;;
6163;SDS011;3114;48.362;10.994;2022-11-15T04:16:33;4.15;;;3.33;;
6163;SDS011;3114;48.362;10.994;2022-11-15T04:18:59;5.03;;;2.90;;
6163;SDS011;3114;48.362;10.994;2022-11-15T04:21:44;4.20;;;3.20;;
6163;SDS011;3114;48.362;10.994;2022-11-15T04:24:29;3.90;;;3.20;;
6163;SDS011;3114;48.362;10.994;2022-11-15T04:26:56;5.03;;;2.97;;
6163;SDS011;3114;48.362;10.994;2022-11-15T04:29:23;4.82;;;3.13;;
6163;SDS011;3114;48.362;10.994;2022-11-15T04:32:02;3.75;;;2.97;;
6163;SDS011;3114;48.362;10.994;2022-11-15T04:34:29;3.70;;;2.95;;
6163;SDS011;3114;48.362;10.994;2022-11-15T04:36:57;7.82;;;3.47;;
6163;SDS011;3114;48.362;10.994;2022-11-15T04:39:41;5.53;;;3.20;;
6163;SDS011;3114;48.362;10.994;2022-11-15T04:42:09;3.20;;;2.88;;
6163;SDS011;3114;48.362;10.994;2022-11-15T04:44:37;4.68;;;3.15;;
6163;SDS011;3114;48.362;10.994;2022-11-15T04:47:04;4.90;;;3.20;;
6163;SDS011;3114;48.362;10.994;2022-11-15T04:49:31;5.00;;;3.00;;
6163;SDS011;3114;48.362;10.994;2022-11-15T04:51:59;6.05;;;3.00;;
6163;SDS011;3114;48.362;10.994;2022-11-15T04:54:26;4.70;;;3.47;;
6163;SDS011;3114;48.362;10.994;2022-11-15T04:56:53;6.07;;;3.53;;
6163;SDS011;3114;48.362;10.994;2022-11-15T04:59:23;3.65;;;3.03;;
6163;SDS011;3114;48.362;10.994;2022-11-15T05:01:50;5.00;;;3.33;;
6163;SDS011;3114;48.362;10.994;2022-11-15T05:04:17;4.30;;;3.37;;
6163;SDS011;3114;48.362;10.994;2022-11-15T05:06:46;3.10;;;2.78;;
6163;SDS011;3114;48.362;10.994;2022-11-15T05:09:15;4.10;;;2.93;;
6163;SDS011;3114;48.362;10.994;2022-11-15T05:11:43;3.47;;;3.10;;
6163;SDS011;3114;48.362;10.994;2022-11-15T05:14:10;6.40;;;2.80;;
6163;SDS011;3114;48.362;10.994;2022-11-15T05:16:37;3.40;;;2.77;;
6163;SDS011;3114;48.362;10.994;2022-11-15T05:19:05;3.20;;;2.90;;
6163;SDS011;3114;48.362;10.994;2022-11-15T05:21:32;3.77;;;2.97;;
6163;SDS011;3114;48.362;10.994;2022-11-15T05:24:00;4.55;;;2.97;;
6163;SDS011;3114;48.362;10.994;2022-11-15T05:26:28;4.03;;;3.17;;
6163;SDS011;3114;48.362;10.994;2022-11-15T05:28:55;3.58;;;3.10;;
6163;SDS011;3114;48.362;10.994;2022-11-15T05:31:23;4.22;;;3.13;;
6163;SDS011;3114;48.362;10.994;2022-11-15T05:33:51;4.28;;;3.03;;
6163;SDS011;3114;48.362;10.994;2022-11-15T05:36:21;4.32;;;3.03;;
6163;SDS011;3114;48.362;10.994;2022-11-15T05:38:53;4.90;;;3.20;;
6163;SDS011;3114;48.362;10.994;2022-11-15T05:41:21;3.78;;;2.95;;
6163;SDS011;3114;48.362;10.994;2022-11-15T05:43:54;5.00;;;3.20;;
6163;SDS011;3114;48.362;10.994;2022-11-15T05:46:21;4.45;;;2.90;;
6163;SDS011;3114;48.362;10.994;2022-11-15T05:48:48;4.43;;;3.43;;
6163;SDS011;3114;48.362;10.994;2022-11-15T05:51:17;4.07;;;3.10;;
6163;SDS011;3114;48.362;10.994;2022-11-15T05:53:45;3.30;;;2.83;;
6163;SDS011;3114;48.362;10.994;2022-11-15T05:56:13;3.63;;;2.95;;
6163;SDS011;3114;48.362;10.994;2022-11-15T05:58:40;4.90;;;3.30;;
6163;SDS011;3114;48.362;10.994;2022-11-15T06:01:10;3.55;;;2.83;;
6163;SDS011;3114;48.362;10.994;2022-11-15T06:03:38;3.20;;;2.75;;
6163;SDS011;3114;48.362;10.994;2022-11-15T06:06:05;4.05;;;3.03;;
6163;SDS011;3114;48.362;10.994;2022-11-15T06:08:33;4.25;;;3.10;;
6163;SDS011;3114;48.362;10.994;2022-11-15T06:11:03;4.10;;;2.90;;
6163;SDS011;3114;48.362;10.994;2022-11-15T06:13:31;3.70;;;2.90;;
6163;SDS011;3114;48.362;10.994;2022-11-15T06:15:58;5.82;;;3.03;;
6163;SDS011;3114;48.362;10.994;2022-11-15T06:18:27;3.28;;;2.67;;
6163;SDS011;3114;48.362;10.994;2022-11-15T06:20:58;3.80;;;2.72;;
6163;SDS011;3114;48.362;10.994;2022-11-15T06:23:25;4.15;;;2.70;;
6163;SDS011;3114;48.362;10.994;2022-11-15T06:25:53;3.10;;;2.78;;
6163;SDS011;3114;48.362;10.994;2022-11-15T06:28:20;3.23;;;2.53;;
6163;SDS011;3114;48.362;10.994;2022-11-15T06:30:46;4.18;;;2.72;;
6163;SDS011;3114;48.362;10.994;2022-11-15T06:33:14;4.63;;;3.20;;
6163;SDS011;3114;48.362;10.994;2022-11-15T06:35:42;5.03;;;2.97;;
6163;SDS011;3114;48.362;10.994;2022-11-15T06:38:09;4.73;;;3.80;;
6163;SDS011;3114;48.362;10.994;2022-11-15T06:40:37;5.78;;;3.63;;
6163;SDS011;3114;48.362;10.994;2022-11-15T06:43:05;4.33;;;3.20;;
6163;SDS011;3114;48.362;10.994;2022-11-15T06:45:33;5.55;;;3.78;;
6163;SDS011;3114;48.362;10.994;2022-11-15T06:48:00;5.47;;;4.00;;
6163;SDS011;3114;48.362;10.994;2022-11-15T06:50:26;9.53;;;5.33;;
6163;SDS011;3114;48.362;10.994;2022-11-15T06:52:55;9.47;;;5.63;;
6163;SDS011;3114;48.362;10.994;2022-11-15T06:55:26;9.70;;;5.50;;
6163;SDS011;3114;48.362;10.994;2022-11-15T06:57:53;9.60;;;5.30;;
6163;SDS011;3114;48.362;10.994;2022-11-15T07:00:20;8.35;;;4.88;;
6163;SDS011;3114;48.362;10.994;2022-11-15T07:02:48;7.97;;;4.90;;
6163;SDS011;3114;48.362;10.994;2022-11-15T07:05:15;9.93;;;5.80;;
6163;SDS011;3114;48.362;10.994;2022-11-15T07:07:42;8.57;;;5.83;;
6163;SDS011;3114;48.362;10.994;2022-11-15T07:10:13;7.77;;;4.73;;
6163;SDS011;3114;48.362;10.994;2022-11-15T07:12:40;6.23;;;4.50;;
6163;SDS011;3114;48.362;10.994;2022-11-15T07:15:08;5.93;;;4.50;;
6163;SDS011;3114;48.362;10.994;2022-11-15T07:17:35;6.85;;;4.20;;
6163;SDS011;3114;48.362;10.994;2022-11-15T07:20:03;5.90;;;4.03;;
6163;SDS011;3114;48.362;10.994;2022-11-15T07:22:31;6.07;;;3.97;;
6163;SDS011;3114;48.362;10.994;2022-11-15T07:24:58;4.75;;;3.88;;
6163;SDS011;3114;48.362;10.994;2022-11-15T07:27:26;6.87;;;3.77;;
6163;SDS011;3114;48.362;10.994;2022-11-15T07:29:53;6.70;;;4.03;;
6163;SDS011;3114;48.362;10.994;2022-11-15T07:32:20;5.00;;;3.73;;
6163;SDS011;3114;48.362;10.994;2022-11-15T07:34:47;6.30;;;3.87;;
6163;SDS011;3114;48.362;10.994;2022-11-15T07:37:14;7.17;;;3.83;;
6163;SDS011;3114;48.362;10.994;2022-11-15T07:39:41;7.10;;;4.00;;
6163;SDS011;3114;48.362;10.994;2022-11-15T07:42:08;5.57;;;3.95;;
6163;SDS011;3114;48.362;10.994;2022-11-15T07:44:54;7.63;;;5.00;;
6163;SDS011;3114;48.362;10.994;2022-11-15T07:47:21;9.63;;;5.20;;
6163;SDS011;3114;48.362;10.994;2022-11-15T07:49:48;5.50;;;3.80;;
6163;SDS011;3114;48.362;10.994;2022-11-15T07:52:16;4.47;;;3.33;;
6163;SDS011;3114;48.362;10.994;2022-11-15T07:54:42;5.30;;;3.13;;
6163;SDS011;3114;48.362;10.994;2022-11-15T07:57:09;4.80;;;2.87;;
6163;SDS011;3114;48.362;10.994;2022-11-15T07:59:36;3.10;;;2.50;;
6163;SDS011;3114;48.362;10.994;2022-11-15T08:02:13;3.27;;;2.60;;
6163;SDS011;3114;48.362;10.994;2022-11-15T08:04:42;3.40;;;2.70;;
6163;SDS011;3114;48.362;10.994;2022-11-15T08:07:09;4.30;;;3.00;;
6163;SDS011;3114;48.362;10.994;2022-11-15T08:09:36;3.13;;;2.83;;
6163;SDS011;3114;48.362;10.994;2022-11-15T08:12:03;4.28;;;3.15;;
6163;SDS011;3114;48.362;10.994;2022-11-15T08:14:31;5.27;;;3.07;;
6163;SDS011;3114;48.362;10.994;2022-11-15T08:17:01;4.03;;;3.10;;
6163;SDS011;3114;48.362;10.994;2022-11-15T08:19:29;3.53;;;2.77;;
6163;SDS011;3114;48.362;10.994;2022-11-15T08:21:56;3.23;;;2.90;;
6163;SDS011;3114;48.362;10.994;2022-11-15T08:24:23;5.17;;;2.90;;
6163;SDS011;3114;48.362;10.994;2022-11-15T08:26:50;3.13;;;2.67;;
6163;SDS011;3114;48.362;10.994;2022-11-15T08:29:16;8.48;;;3.33;;
6163;SDS011;3114;48.362;10.994;2022-11-15T08:31:43;5.03;;;2.90;;
6163;SDS011;3114;48.362;10.994;2022-11-15T08:34:10;5.28;;;3.10;;
6163;SDS011;3114;48.362;10.994;2022-11-15T08:36:38;6.25;;;3.40;;
6163;SDS011;3114;48.362;10.994;2022-11-15T08:39:05;4.03;;;3.22;;
6163;SDS011;3114;48.362;10.994;2022-11-15T08:41:33;3.60;;;2.97;;
6163;SDS011;3114;48.362;10.994;2022-11-15T08:44:02;3.85;;;3.13;;
6163;SDS011;3114;48.362;10.994;2022-11-15T08:46:30;4.53;;;3.05;;
6163;SDS011;3114;48.362;10.994;2022-11-15T08:48:58;5.43;;;3.30;;
6163;SDS011;3114;48.362;10.994;2022-11-15T08:51:24;5.45;;;3.42;;
6163;SDS011;3114;48.362;10.994;2022-11-15T08:53:53;4.57;;;3.30;;
6163;SDS011;3114;48.362;10.994;2022-11-15T08:56:19;4.88;;;3.15;;
6163;SDS011;3114;48.362;10.994;2022-11-15T08:58:46;3.28;;;2.83;;
6163;SDS011;3114;48.362;10.994;2022-11-15T09:01:14;5.05;;;2.92;;
6163;SDS011;3114;48.362;10.994;2022-11-15T09:03:42;5.55;;;3.33;;
6163;SDS011;3114;48.362;10.994;2022-11-15T09:06:10;5.38;;;3.22;;
6163;SDS011;3114;48.362;10.994;2022-11-15T09:08:37;4.85;;;2.88;;
6163;SDS011;3114;48.362;10.994;2022-11-15T09:11:07;5.25;;;2.80;;
6163;SDS011;3114;48.362;10.994;2022-11-15T09:13:35;3.42;;;2.75;;
6163;SDS011;3114;48.362;10.994;2022-11-15T09:16:03;4.90;;;3.25;;
6163;SDS011;3114;48.362;10.994;2022-11-15T09:18:30;4.57;;;2.65;;
6163;SDS011;3114;48.362;10.994;2022-11-15T09:20:58;4.50;;;2.78;;
6163;SDS011;3114;48.362;10.994;2022-11-15T09:23:25;4.07;;;2.83;;
6163;SDS011;3114;48.362;10.994;2022-11-15T09:25:57;5.35;;;3.30;;
6163;SDS011;3114;48.362;10.994;2022-11-15T09:28:26;5.47;;;2.92;;
6163;SDS011;3114;48.362;10.994;2022-11-15T09:30:55;3.78;;;2.85;;
6163;SDS011;3114;48.362;10.994;2022-11-15T09:33:23;3.88;;;2.60;;
6163;SDS011;3114;48.362;10.994;2022-11-15T09:35:50;3.63;;;2.85;;
6163;SDS011;3114;48.362;10.994;2022-11-15T09:38:17;5.38;;;3.10;;
6163;SDS011;3114;48.362;10.994;2022-11-15T09:40:44;15.05;;;4.60;;
6163;SDS011;3114;48.362;10.994;2022-11-15T09:43:24;24.40;;;6.03;;
6163;SDS011;3114;48.362;10.994;2022-11-15T09:46:01;15.80;;;4.90;;
6163;SDS011;3114;48.362;10.994;2022-11-15T09:48:39;10.23;;;4.10;;
6163;SDS011;3114;48.362;10.994;2022-11-15T09:51:18;5.95;;;3.22;;
6163;SDS011;3114;48.362;10.994;2022-11-15T09:53:54;4.38;;;2.83;;
6163;SDS011;3114;48.362;10.994;2022-11-15T09:56:32;3.92;;;2.78;;
6163;SDS011;3114;48.362;10.994;2022-11-15T09:59:08;3.58;;;2.80;;
6163;SDS011;3114;48.362;10.994;2022-11-15T10:01:44;4.20;;;2.95;;
6163;SDS011;3114;48.362;10.994;2022-11-15T10:04:20;3.08;;;2.65;;
6163;SDS011;3114;48.362;10.994;2022-11-15T10:06:50;3.15;;;2.50;;
6163;SDS011;3114;48.362;10.994;2022-11-15T10:09:22;2.92;;;2.47;;
6163;SDS011;3114;48.362;10.994;2022-11-15T10:11:54;3.03;;;2.45;;
6163;SDS011;3114;48.362;10.994;2022-11-15T10:14:23;2.50;;;2.30;;
6163;SDS011;3114;48.362;10.994;2022-11-15T10:20:04;4.07;;;2.60;;
6163;SDS011;3114;48.362;10.994;2022-11-15T10:22:39;3.17;;;2.60;;
6163;SDS011;3114;48.362;10.994;2022-11-15T10:25:13;5.22;;;3.10;;
6163;SDS011;3114;48.362;10.994;2022-11-15T10:27:45;3.60;;;2.80;;
6163;SDS011;3114;48.362;10.994;2022-11-15T10:30:20;3.85;;;2.83;;
6163;SDS011;3114;48.362;10.994;2022-11-15T10:32:47;3.25;;;2.53;;
6163;SDS011;3114;48.362;10.994;2022-11-15T10:35:16;4.03;;;2.47;;
6163;SDS011;3114;48.362;10.994;2022-11-15T10:37:44;6.50;;;2.65;;
6163;SDS011;3114;48.362;10.994;2022-11-15T10:40:15;2.92;;;2.45;;
6163;SDS011;3114;48.362;10.994;2022-11-15T10:42:43;3.28;;;2.55;;
6163;SDS011;3114;48.362;10.994;2022-11-15T10:45:23;5.63;;;2.50;;
6163;SDS011;3114;48.362;10.994;2022-11-15T10:47:52;3.95;;;2.42;;
6163;SDS011;3114;48.362;10.994;2022-11-15T10:50:29;4.38;;;2.50;;
6163;SDS011;3114;48.362;10.994;2022-11-15T10:52:58;3.33;;;2.58;;
6163;SDS011;3114;48.362;10.994;2022-11-15T10:55:28;3.55;;;2.45;;
6163;SDS011;3114;48.362;10.994;2022-11-15T10:57:59;3.25;;;2.15;;
6163;SDS011;3114;48.362;10.994;2022-11-15T11:00:32;8.25;;;2.28;;
6163;SDS011;3114;48.362;10.994;2022-11-15T11:03:01;3.45;;;2.78;;
6163;SDS011;3114;48.362;10.994;2022-11-15T11:05:31;6.60;;;2.47;;
6163;SDS011;3114;48.362;10.994;2022-11-15T11:08:00;4.13;;;2.40;;
6163;SDS011;3114;48.362;10.994;2022-11-15T11:10:29;4.70;;;2.78;;
6163;SDS011;3114;48.362;10.994;2022-11-15T11:13:06;3.03;;;2.28;;
6163;SDS011;3114;48.362;10.994;2022-11-15T11:15:41;2.15;;;1.95;;
6163;SDS011;3114;48.362;10.994;2022-11-15T11:18:14;3.40;;;2.33;;
6163;SDS011;3114;48.362;10.994;2022-11-15T11:20:46;5.43;;;2.50;;
6163;SDS011;3114;48.362;10.994;2022-11-15T11:23:21;3.75;;;3.03;;
6163;SDS011;3114;48.362;10.994;2022-11-15T11:26:03;3.38;;;2.60;;
6163;SDS011;3114;48.362;10.994;2022-11-15T11:28:42;3.88;;;2.90;;
6163;SDS011;3114;48.362;10.994;2022-11-15T11:31:20;5.40;;;2.97;;
6163;SDS011;3114;48.362;10.994;2022-11-15T11:33:57;4.15;;;2.50;;
6163;SDS011;3114;48.362;10.994;2022-11-15T11:36:32;4.35;;;2.80;;
6163;SDS011;3114;48.362;10.994;2022-11-15T11:39:16;3.67;;;2.67;;
6163;SDS011;3114;48.362;10.994;2022-11-15T11:41:53;3.67;;;2.60;;
6163;SDS011;3114;48.362;10.994;2022-11-15T11:44:28;4.10;;;2.97;;
6163;SDS011;3114;48.362;10.994;2022-11-15T11:47:02;5.45;;;2.97;;
6163;SDS011;3114;48.362;10.994;2022-11-15T11:49:36;3.90;;;3.00;;
6163;SDS011;3114;48.362;10.994;2022-11-15T11:52:17;2.60;;;2.40;;
6163;SDS011;3114;48.362;10.994;2022-11-15T11:54:52;3.20;;;2.50;;
6163;SDS011;3114;48.362;10.994;2022-11-15T11:57:25;4.07;;;2.30;;
6163;SDS011;3114;48.362;10.994;2022-11-15T12:00:03;2.60;;;2.40;;
6163;SDS011;3114;48.362;10.994;2022-11-15T12:02:41;5.40;;;2.22;;
6163;SDS011;3114;48.362;10.994;2022-11-15T12:05:13;2.90;;;2.42;;
6163;SDS011;3114;48.362;10.994;2022-11-15T12:07:44;3.20;;;2.38;;
6163;SDS011;3114;48.362;10.994;2022-11-15T12:10:16;3.67;;;2.70;;
6163;SDS011;3114;48.362;10.994;2022-11-15T12:12:49;2.85;;;2.53;;
6163;SDS011;3114;48.362;10.994;2022-11-15T12:15:22;4.28;;;2.55;;
6163;SDS011;3114;48.362;10.994;2022-11-15T12:17:53;3.58;;;2.55;;
6163;SDS011;3114;48.362;10.994;2022-11-15T12:20:22;3.35;;;2.33;;
6163;SDS011;3114;48.362;10.994;2022-11-15T12:23:05;5.53;;;2.40;;
6163;SDS011;3114;48.362;10.994;2022-11-15T12:25:40;3.60;;;2.60;;
6163;SDS011;3114;48.362;10.994;2022-11-15T12:28:13;5.65;;;2.75;;
6163;SDS011;3114;48.362;10.994;2022-11-15T12:30:45;4.28;;;2.20;;
6163;SDS011;3114;48.362;10.994;2022-11-15T12:33:31;2.95;;;2.38;;
6163;SDS011;3114;48.362;10.994;2022-11-15T12:36:09;3.13;;;2.42;;
6163;SDS011;3114;48.362;10.994;2022-11-15T12:41:23;2.55;;;2.17;;
6163;SDS011;3114;48.362;10.994;2022-11-15T12:43:51;3.22;;;2.20;;
6163;SDS011;3114;48.362;10.994;2022-11-15T12:46:20;3.80;;;2.80;;
6163;SDS011;3114;48.362;10.994;2022-11-15T12:48:52;3.17;;;2.20;;
6163;SDS011;3114;48.362;10.994;2022-11-15T12:51:21;3.90;;;2.50;;
6163;SDS011;3114;48.362;10.994;2022-11-15T12:59:59;3.72;;;2.20;;
6163;SDS011;3114;48.362;10.994;2022-11-15T13:02:29;3.08;;;2.03;;
6163;SDS011;3114;48.362;10.994;2022-11-15T13:08:10;3.95;;;2.28;;
6163;SDS011;3114;48.362;10.994;2022-11-15T13:17:24;2.30;;;1.88;;
6163;SDS011;3114;48.362;10.994;2022-11-15T13:19:59;6.32;;;2.67;;
6163;SDS011;3114;48.362;10.994;2022-11-15T13:22:37;4.90;;;3.42;;
6163;SDS011;3114;48.362;10.994;2022-11-15T13:25:23;5.18;;;2.30;;
6163;SDS011;3114;48.362;10.994;2022-11-15T13:28:09;3.95;;;2.40;;
6163;SDS011;3114;48.362;10.994;2022-11-15T13:30:38;3.60;;;2.35;;
6163;SDS011;3114;48.362;10.994;2022-11-15T13:33:07;2.38;;;1.95;;
6163;SDS011;3114;48.362;10.994;2022-11-15T13:35:41;3.60;;;2.30;;
6163;SDS011;3114;48.362;10.994;2022-11-15T13:38:18;4.63;;;2.08;;
6163;SDS011;3114;48.362;10.994;2022-11-15T13:40:51;3.58;;;2.50;;
6163;SDS011;3114;48.362;10.994;2022-11-15T13:43:23;2.72;;;2.20;;
6163;SDS011;3114;48.362;10.994;2022-11-15T13:46:07;3.03;;;2.10;;
6163;SDS011;3114;48.362;10.994;2022-11-15T13:48:37;2.95;;;2.25;;
6163;SDS011;3114;48.362;10.994;2022-11-15T13:51:05;3.38;;;2.25;;
6163;SDS011;3114;48.362;10.994;2022-11-15T13:53:38;2.80;;;2.28;;
6163;SDS011;3114;48.362;10.994;2022-11-15T13:56:07;2.42;;;2.22;;
6163;SDS011;3114;48.362;10.994;2022-11-15T13:58:36;3.08;;;2.22;;
6163;SDS011;3114;48.362;10.994;2022-11-15T14:01:05;4.55;;;2.67;;
6163;SDS011;3114;48.362;10.994;2022-11-15T14:03:33;4.05;;;2.60;;
6163;SDS011;3114;48.362;10.994;2022-11-15T14:06:08;3.40;;;2.63;;
6163;SDS011;3114;48.362;10.994;2022-11-15T14:08:38;3.92;;;2.80;;
6163;SDS011;3114;48.362;10.994;2022-11-15T14:11:07;3.55;;;2.40;;
6163;SDS011;3114;48.362;10.994;2022-11-15T14:13:35;6.00;;;2.42;;
6163;SDS011;3114;48.362;10.994;2022-11-15T14:18:49;5.28;;;2.70;;
6163;SDS011;3114;48.362;10.994;2022-11-15T14:21:18;2.63;;;2.15;;
6163;SDS011;3114;48.362;10.994;2022-11-15T14:23:47;3.10;;;2.17;;
6163;SDS011;3114;48.362;10.994;2022-11-15T14:26:26;3.00;;;2.38;;
6163;SDS011;3114;48.362;10.994;2022-11-15T14:28:54;3.45;;;2.40;;
6163;SDS011;3114;48.362;10.994;2022-11-15T14:31:21;3.97;;;2.83;;
6163;SDS011;3114;48.362;10.994;2022-11-15T14:33:48;5.85;;;3.67;;
6163;SDS011;3114;48.362;10.994;2022-11-15T14:36:16;7.95;;;3.40;;
6163;SDS011;3114;48.362;10.994;2022-11-15T14:38:44;6.57;;;4.90;;
6163;SDS011;3114;48.362;10.994;2022-11-15T14:41:17;5.97;;;4.32;;
6163;SDS011;3114;48.362;10.994;2022-11-15T14:43:47;4.72;;;3.30;;
6163;SDS011;3114;48.362;10.994;2022-11-15T14:46:14;6.40;;;3.40;;
6163;SDS011;3114;48.362;10.994;2022-11-15T14:48:41;6.70;;;3.22;;
6163;SDS011;3114;48.362;10.994;2022-11-15T14:51:11;5.03;;;3.30;;
6163;SDS011;3114;48.362;10.994;2022-11-15T14:53:39;6.20;;;3.22;;
6163;SDS011;3114;48.362;10.994;2022-11-15T14:56:07;6.15;;;3.70;;
6163;SDS011;3114;48.362;10.994;2022-11-15T14:58:35;5.82;;;3.58;;
6163;SDS011;3114;48.362;10.994;2022-11-15T15:01:03;5.00;;;3.45;;
6163;SDS011;3114;48.362;10.994;2022-11-15T15:03:38;3.58;;;3.25;;
6163;SDS011;3114;48.362;10.994;2022-11-15T15:06:05;5.72;;;3.35;;
6163;SDS011;3114;48.362;10.994;2022-11-15T15:08:33;5.28;;;3.72;;
6163;SDS011;3114;48.362;10.994;2022-11-15T15:11:00;4.80;;;3.63;;
6163;SDS011;3114;48.362;10.994;2022-11-15T15:13:27;5.55;;;3.70;;
6163;SDS011;3114;48.362;10.994;2022-11-15T15:15:56;5.70;;;3.38;;
6163;SDS011;3114;48.362;10.994;2022-11-15T15:18:23;6.22;;;4.22;;
6163;SDS011;3114;48.362;10.994;2022-11-15T15:20:53;5.95;;;4.10;;
6163;SDS011;3114;48.362;10.994;2022-11-15T15:23:22;7.75;;;4.10;;
6163;SDS011;3114;48.362;10.994;2022-11-15T15:25:50;5.35;;;4.03;;
6163;SDS011;3114;48.362;10.994;2022-11-15T15:28:18;4.78;;;3.78;;
6163;SDS011;3114;48.362;10.994;2022-11-15T15:30:47;6.32;;;3.75;;
6163;SDS011;3114;48.362;10.994;2022-11-15T15:33:15;10.50;;;4.50;;
6163;SDS011;3114;48.362;10.994;2022-11-15T15:35:42;7.57;;;3.95;;
6163;SDS011;3114;48.362;10.994;2022-11-15T15:38:10;9.20;;;3.78;;
6163;SDS011;3114;48.362;10.994;2022-11-15T15:40:38;6.38;;;3.95;;
6163;SDS011;3114;48.362;10.994;2022-11-15T15:43:04;4.68;;;3.80;;
6163;SDS011;3114;48.362;10.994;2022-11-15T15:45:35;7.88;;;3.80;;
6163;SDS011;3114;48.362;10.994;2022-11-15T15:48:04;4.72;;;3.15;;
6163;SDS011;3114;48.362;10.994;2022-11-15T15:50:33;9.05;;;3.35;;